Latest Weather Observations for Parafield

IDS60901

Issued at 10:31 am CDT Friday 24 March 2017 (issued every 10 minutes, with the page automatically refreshed every 10 minutes)

About weather observations | Map of Adelaide area stations | Latest observations for Adelaide area | Other Formats
Station Details ID: 023013 Name: PARAFIELD AIRPORT Lat: -34.80 Lon: 138.63 Height: 9.5 m
Data from the previous 72 hours. | See also: Recent months at Parafield
Date/Time
CDT
Temp
°C
App
Temp
°C
Dew
Point
°C
Rel
Hum
%
Delta-T
°C
Wind Press
QNH
hPa
Press
MSL
hPa
Rain since
9am
mm
Dir  Spd
km/h
Gust
km/h
Spd
kts
Gust
kts
24/10:30am 27.9 26.2 16.2 49 7.2 NE 20 30 11 16 1014.2 1014.2 0.0
24/10:00am 26.1 24.4 15.8 53 6.3 NE 19 24 10 13 1014.4 1014.4 0.0
24/09:30am 25.4 23.5 15.7 55 5.9 NE 20 24 11 13 1014.6 1014.6 0.0
24/09:00am 24.5 22.5 15.4 57 5.5 NE 20 30 11 16 1014.1 1014.1 0.0
24/08:30am 23.2 21.2 15.0 60 4.9 ENE 19 24 10 13 1014.1 1014.1 0.0
24/08:00am 22.5 21.2 14.9 62 4.5 E 15 20 8 11 1014.3 1014.3 0.0
24/07:30am 21.9 19.5 14.3 62 4.4 E 20 26 11 14 1014.0 1014.0 0.0
24/07:00am 21.7 19.8 14.1 62 4.4 NE 17 22 9 12 1014.0 1014.0 0.0
24/06:30am 22.0 19.4 13.9 60 4.7 ENE 20 28 11 15 1013.6 1013.6 0.0
24/06:00am 21.9 20.3 13.8 60 4.7 ENE 15 24 8 13 1014.2 1014.2 0.0
24/05:30am 21.9 18.4 13.5 59 4.8 E 24 33 13 18 1013.5 1013.5 0.0
24/05:00am 22.0 18.1 13.4 58 5.0 E 26 33 14 18 1013.5 1013.5 0.0
24/04:30am 22.0 19.3 13.4 58 5.0 ENE 20 32 11 17 1013.7 1013.7 0.0
24/04:00am 22.3 19.2 13.4 57 5.1 ENE 22 33 12 18 1013.5 1013.5 0.0
24/03:30am 22.7 18.5 13.5 56 5.3 E 28 37 15 20 1013.5 1013.5 0.0
24/03:00am 22.9 18.0 13.7 56 5.4 E 32 43 17 23 1013.8 1013.8 0.0
24/02:30am 22.8 18.3 13.8 57 5.2 E 30 39 16 21 1014.2 1014.2 0.0
24/02:00am 22.9 19.3 14.2 58 5.1 E 26 35 14 19 1014.7 1014.7 0.0
24/01:30am 22.7 21.2 14.3 59 4.9 ESE 15 26 8 14 1014.9 1014.9 0.0
24/01:00am 21.1 21.2 14.5 66 3.9 ENE 7 11 4 6 1015.1 1015.1 0.0
24/12:30am 21.7 21.8 14.4 63 4.3 E 7 11 4 6 1015.7 1015.7 0.0
24/12:00am 22.0 20.9 14.4 62 4.5 ESE 13 19 7 10 1015.7 1015.7 0.0
 
Date/Time
CDT
Temp
°C
App
Temp
°C
Dew
Point
°C
Rel
Hum
%
Delta-T
°C
Wind Press
QNH
hPa
Press
MSL
hPa
Rain since
9am
mm
Dir  Spd
km/h
Gust
km/h
Spd
kts
Gust
kts
23/11:30pm 22.7 20.9 14.5 60 4.8 SE 17 22 9 12 1016.0 1016.0 0.0
23/11:00pm 22.8 20.7 14.6 60 4.8 ESE 19 26 10 14 1016.1 1016.1 0.0
23/10:30pm 21.2 20.0 14.1 64 4.1 SE 13 19 7 10 1016.2 1016.2 0.0
23/10:00pm 20.8 20.0 14.0 65 3.9 ESE 11 13 6 7 1016.1 1016.1 0.0
23/09:30pm 21.8 20.7 14.2 62 4.4 SE 13 19 7 10 1016.0 1016.0 0.0
23/09:00pm 22.3 20.8 14.2 60 4.7 SE 15 19 8 10 1015.6 1015.6 0.0
23/08:30pm 23.1 20.9 14.4 58 5.1 SE 19 20 10 11 1015.2 1015.2 0.0
23/08:00pm 24.0 22.2 14.4 55 5.7 SE 17 20 9 11 1014.8 1014.8 0.0
23/07:30pm 24.4 24.0 14.2 53 6.0 SE 9 17 5 9 1014.6 1014.6 0.0
23/07:00pm 26.2 23.8 14.3 48 7.1 ESE 20 28 11 15 1014.1 1014.1 0.0
23/06:30pm 27.9 25.1 14.2 43 8.2 ESE 22 30 12 16 1014.0 1014.0 0.0
23/06:00pm 28.7 26.4 14.1 40 8.8 ESE 19 28 10 15 1014.0 1014.0 0.0
23/05:30pm 28.8 26.3 13.5 39 9.1 E 19 28 10 15 1013.8 1013.8 0.0
23/05:00pm 28.1 27.8 16.4 49 7.3 W 13 19 7 10 1014.0 1014.0 0.0
23/04:30pm 28.2 27.9 16.5 49 7.3 SW 13 17 7 9 1014.2 1014.2 0.0
23/04:00pm 27.5 27.0 15.8 48 7.2 WSW 13 19 7 10 1014.2 1014.2 0.0
23/03:30pm 26.9 25.2 16.2 52 6.6 W 20 28 11 15 1014.4 1014.4 0.0
23/03:00pm 26.7 24.4 15.7 51 6.7 W 22 28 12 15 1014.5 1014.5 0.0
23/02:30pm 26.3 23.9 15.4 51 6.6 W 22 30 12 16 1014.7 1014.7 0.0
23/02:00pm 26.5 24.8 14.6 48 7.1 WSW 17 24 9 13 1015.1 1015.1 0.0
23/01:30pm 25.8 24.7 14.3 49 6.8 W 13 19 7 10 1015.9 1015.9 0.0
23/01:00pm 25.2 24.0 14.0 49 6.6 SW 13 20 7 11 1016.6 1016.6 0.0
23/12:30pm 25.1 24.8 14.3 51 6.4 S 9 17 5 9 1017.1 1017.1 0.0
23/12:00pm 23.6 23.1 13.8 54 5.7 SSW 9 15 5 8 1017.6 1017.6 0.0
23/11:30am 23.2 23.2 13.7 55 5.5 ESE 6 13 3 7 1018.1 1018.1 0.0
23/11:00am 22.1 22.2 14.0 60 4.7 N 6 11 3 6 1018.5 1018.5 0.0
23/10:30am 20.6 19.6 13.3 63 4.2 ESE 11 19 6 10 1018.2 1018.2 0.0
23/10:00am 20.3 18.7 14.0 67 3.6 SE 15 20 8 11 1018.2 1018.2 0.0
23/09:30am 18.7 16.6 13.6 72 2.9 SE 17 20 9 11 1018.7 1018.7 0.0
23/09:00am 18.4 16.3 13.5 73 2.8 SE 17 22 9 12 1018.5 1018.5 0.0
23/08:30am 18.5 17.2 13.8 74 2.7 SE 13 19 7 10 1018.1 1018.1 0.0
23/08:21am 18.6 18.1 13.9 74 2.7 SE 9 13 5 7 1018.2 1018.2 0.0
23/08:00am 18.2 17.7 13.9 76 2.5 SE 9 11 5 6 1018.2 1018.2 0.0
23/07:30am 17.9 17.1 14.0 78 2.2 SE 11 13 6 7 1017.7 1017.7 0.0
23/07:00am 17.9 16.3 14.0 78 2.2 ESE 15 20 8 11 1017.4 1017.4 0.0
23/06:30am 17.2 17.7 14.1 82 1.8 ENE 4 9 2 5 1017.2 1017.2 0.0
23/06:00am 17.2 17.3 13.9 81 1.9 NW 6 11 3 6 1016.7 1016.7 0.0
23/05:40am 17.2 17.1 13.9 81 1.9 ESE 7 11 4 6 1016.6 1016.6 0.0
23/05:30am 17.1 16.6 13.8 81 1.9 ESE 9 17 5 9 1016.5 1016.5 0.0
23/05:00am 17.4 15.9 14.1 81 1.9 SE 15 22 8 12 1016.9 1016.9 0.0
23/04:30am 17.7 16.1 14.0 79 2.1 SE 15 20 8 11 1017.2 1017.2 0.0
23/04:18am 18.0 16.1 14.1 78 2.2 SE 17 22 9 12 1017.3 1017.3 0.0
23/04:00am 18.1 16.5 14.0 77 2.3 SE 15 20 8 11 1017.5 1017.5 0.0
23/03:30am 18.4 16.5 14.1 76 2.5 SE 17 24 9 13 1017.5 1017.5 0.0
23/03:00am 18.3 16.0 14.2 77 2.4 SE 19 24 10 13 1017.4 1017.4 0.0
23/02:30am 17.8 15.8 13.9 78 2.2 SE 17 24 9 13 1017.3 1017.3 0.0
23/02:00am 18.0 16.0 13.9 77 2.3 SE 17 24 9 13 1017.2 1017.2 0.0
23/01:30am 18.1 16.5 14.0 77 2.3 SE 15 19 8 10 1017.3 1017.3 0.0
23/01:00am 18.5 17.4 14.4 77 2.4 SE 13 17 7 9 1017.7 1017.7 0.0
23/12:30am 18.7 17.6 14.4 76 2.5 SE 13 19 7 10 1018.0 1018.0 0.0
23/12:00am 18.6 18.0 14.5 77 2.4 SE 11 17 6 9 1018.0 1018.0 0.0
 
Date/Time
CDT
Temp
°C
App
Temp
°C
Dew
Point
°C
Rel
Hum
%
Delta-T
°C
Wind Press
QNH
hPa
Press
MSL
hPa
Rain since
9am
mm
Dir  Spd
km/h
Gust
km/h
Spd
kts
Gust
kts
22/11:30pm 18.3 18.2 14.0 76 2.5 SSE 7 13 4 7 1018.1 1018.1 0.0
22/11:00pm 18.8 18.5 14.3 75 2.6 SE 9 20 5 11 1017.8 1017.8 0.0
22/10:30pm 19.1 17.7 14.4 74 2.7 SE 15 26 8 14 1017.7 1017.7 0.0
22/10:00pm 18.6 18.0 14.5 77 2.4 S 11 20 6 11 1017.8 1017.8 0.0
22/09:30pm 19.3 19.5 14.6 74 2.7 SSW 7 13 4 7 1017.4 1017.4 0.0
22/09:00pm 20.4 19.4 14.7 70 3.3 SSW 13 17 7 9 1017.3 1017.3 0.0
22/08:30pm 21.0 19.9 14.4 66 3.8 S 13 20 7 11 1017.2 1017.2 0.0
22/08:00pm 21.0 19.9 14.2 65 4.0 S 13 20 7 11 1016.9 1016.9 0.0
22/07:30pm 21.2 20.0 14.1 64 4.1 SE 13 20 7 11 1016.6 1016.6 0.0
22/07:00pm 21.3 18.0 14.0 63 4.2 SE 24 35 13 19 1016.2 1016.2 0.0
22/06:30pm 21.9 19.7 14.3 62 4.4 SSE 19 26 10 14 1016.2 1016.2 0.0
22/06:00pm 22.5 19.4 14.6 61 4.7 SE 24 32 13 17 1015.9 1015.9 0.0
22/05:30pm 22.9 20.5 14.5 59 4.9 SE 20 30 11 16 1015.6 1015.6 0.0
22/05:00pm 23.6 20.5 14.6 57 5.3 SE 24 32 13 17 1015.5 1015.5 0.0
22/04:30pm 22.8 19.7 14.4 59 4.9 SE 24 33 13 18 1015.6 1015.6 0.0
22/04:00pm 22.5 19.0 14.6 61 4.7 SSE 26 33 14 18 1015.8 1015.8 0.0
22/03:30pm 22.8 20.1 14.6 60 4.8 SSE 22 39 12 21 1016.0 1016.0 0.0
22/03:00pm 23.3 21.0 14.6 58 5.1 SE 20 26 11 14 1016.0 1016.0 0.0
22/02:30pm 22.6 20.0 15.0 62 4.5 SSE 22 28 12 15 1016.1 1016.1 0.0
22/02:00pm 22.8 20.8 15.4 63 4.4 SE 20 30 11 16 1016.3 1016.3 0.0
22/01:30pm 22.3 20.6 14.7 62 4.5 ESE 17 30 9 16 1016.6 1016.6 0.0
22/01:00pm 21.8 19.5 14.7 64 4.2 SE 20 28 11 15 1016.8 1016.8 0.0
22/12:30pm 22.0 19.4 14.9 64 4.2 SSE 22 30 12 16 1017.1 1017.1 0.0
22/12:00pm 21.3 19.1 14.9 67 3.8 SE 20 33 11 18 1017.2 1017.2 0.0
22/11:30am 20.4 17.7 14.7 70 3.3 SE 22 32 12 17 1017.4 1017.4 0.0
22/11:00am 20.7 18.1 15.0 70 3.4 SSE 22 28 12 15 1017.5 1017.5 0.0
22/10:30am 20.6 18.7 15.2 71 3.2 SE 19 24 10 13 1017.5 1017.5 0.0
22/10:00am 20.6 18.6 14.9 70 3.3 SE 19 28 10 15 1017.3 1017.3 0.0
22/09:30am 21.0 19.4 15.1 69 3.5 SE 17 24 9 13 1016.8 1016.8 0.0
22/09:00am 20.4 19.6 15.0 71 3.2 SE 13 24 7 13 1016.3 1016.3 0.0
22/08:30am 20.0 17.8 15.0 73 2.9 SE 20 28 11 15 1015.6 1015.6 0.0
22/08:00am 19.7 18.5 15.1 75 2.7 SE 15 26 8 14 1015.3 1015.3 0.0
22/07:30am 19.3 19.3 15.2 77 2.4 SE 9 17 5 9 1014.9 1014.9 0.0
22/07:00am 19.1 18.7 15.2 78 2.3 SE 11 15 6 8 1014.8 1014.8 0.0
22/06:30am 19.1 18.8 15.4 79 2.2 SSE 11 15 6 8 1014.5 1014.5 0.0
22/06:17am 19.1 18.4 15.4 79 2.2 SSE 13 19 7 10 1014.3 1014.3 0.0
22/06:07am 19.1 18.0 15.4 79 2.2 SE 15 20 8 11 1014.1 1014.1 0.0
22/06:00am 19.0 17.6 15.5 80 2.1 SE 17 22 9 12 1014.0 1014.0 0.0
22/05:30am 18.7 16.9 15.6 82 1.8 SE 19 24 10 13 1013.7 1013.7 0.0
22/05:00am 18.3 17.7 15.7 85 1.5 SSE 13 19 7 10 1013.7 1013.7 0.0
22/04:30am 18.0 19.8 15.4 85 1.5 CALM 0 0 0 0 1013.3 1013.3 0.0
22/04:00am 18.4 18.1 15.5 83 1.7 SSE 11 15 6 8 1013.4 1013.4 0.0
22/03:30am 18.7 19.5 15.9 84 1.7 SSE 6 9 3 5 1012.9 1012.9 0.0
22/03:00am 19.0 18.8 15.7 81 2.0 SE 11 15 6 8 1012.9 1012.9 0.0
22/02:30am 19.3 19.8 15.6 79 2.2 SE 7 15 4 8 1012.9 1012.9 0.0
22/02:00am 19.5 19.3 15.8 79 2.2 SSE 11 15 6 8 1013.0 1013.0 0.0
22/01:30am 20.0 19.2 16.0 78 2.4 SE 15 20 8 11 1012.9 1012.9 0.0
22/01:00am 20.2 19.5 16.4 79 2.3 SE 15 24 8 13 1012.8 1012.8 0.0
22/12:30am 20.3 20.4 16.5 79 2.3 SSE 11 17 6 9 1012.8 1012.8 0.0
22/12:00am 20.7 19.7 16.7 78 2.4 SE 17 28 9 15 1012.5 1012.5 0.0
 
Date/Time
CDT
Temp
°C
App
Temp
°C
Dew
Point
°C
Rel
Hum
%
Delta-T
°C
Wind Press
QNH
hPa
Press
MSL
hPa
Rain since
9am
mm
Dir  Spd
km/h
Gust
km/h
Spd
kts
Gust
kts
21/11:30pm 21.1 21.0 16.9 77 2.6 ESE 13 20 7 11 1012.4 1012.4 0.0
21/11:00pm 21.1 21.0 16.9 77 2.6 SE 13 15 7 8 1012.4 1012.4 0.0
21/10:30pm 20.8 22.7 16.8 78 2.4 S 2 7 1 4 1012.3 1012.3 0.0
21/10:00pm 21.0 21.5 16.6 76 2.7 SSE 9 11 5 6 1012.1 1012.1 0.0
21/09:30pm 22.1 23.1 16.8 72 3.2 E 7 11 4 6 1011.7 1011.7 0.0
21/09:00pm 22.4 21.5 16.9 71 3.4 ESE 17 22 9 12 1011.2 1011.2 0.0
21/08:30pm 23.2 21.8 17.0 68 3.8 ESE 20 28 11 15 1010.6 1010.6 0.0
21/08:19pm 23.5 20.6 17.0 67 4.0 SE 28 37 15 20 1010.2 1010.2 0.0
21/08:00pm 24.2 24.9 17.9 68 3.9 E 11 17 6 9 1009.9 1009.9 0.0
21/07:30pm 24.8 25.1 18.0 66 4.3 WNW 13 15 7 8 1009.3 1009.3 0.0
21/07:00pm 25.9 26.2 17.8 61 5.1 WSW 13 17 7 9 1009.2 1009.2 0.0
21/06:30pm 25.3 25.1 19.7 71 3.6 W 20 24 11 13 1008.9 1008.9 0.0
21/06:00pm 27.0 26.0 19.6 64 4.8 WNW 24 30 13 16 1008.5 1008.5 0.0
21/05:30pm 29.7 29.1 18.5 51 7.2 WNW 19 30 10 16 1008.1 1008.1 0.0
21/05:00pm 29.1 29.4 17.0 48 7.6 WNW 11 17 6 9 1008.0 1008.0 0.0
21/04:30pm 29.3 29.8 16.5 46 8.0 NE 9 13 5 7 1008.0 1008.0 0.0
21/04:00pm 29.5 30.9 17.3 47 7.7 ENE 6 11 3 6 1008.2 1008.2 0.0
21/03:30pm 28.7 28.9 17.6 51 7.0 ESE 13 17 7 9 1008.6 1008.6 0.0
21/03:00pm 29.6 29.1 17.8 49 7.5 SE 17 22 9 12 1008.9 1008.9 0.0
21/02:30pm 29.2 29.8 17.7 50 7.3 NNW 11 20 6 11 1009.4 1009.4 0.0
21/02:00pm 27.4 28.0 17.8 55 6.1 ENE 11 17 6 9 1009.7 1009.7 0.0
21/01:30pm 26.9 26.1 17.9 57 5.7 ESE 19 28 10 15 1009.9 1009.9 0.0
21/01:00pm 26.7 27.2 17.5 57 5.8 E 11 20 6 11 1010.3 1010.3 0.0
21/12:30pm 26.6 25.8 17.9 59 5.5 E 19 24 10 13 1010.5 1010.5 0.0
21/12:00pm 26.2 25.3 17.8 60 5.3 E 19 24 10 13 1010.7 1010.7 0.0
21/11:30am 25.7 25.1 17.6 61 5.1 ESE 17 22 9 12 1010.9 1010.9 0.0
21/11:00am 25.8 25.3 17.7 61 5.1 ESE 17 26 9 14 1010.9 1010.9 0.0

Latest Capital City Observations: Canberra | Sydney | Melbourne | Brisbane | Adelaide | Perth | Hobart | Darwin

Other Formats:

Comma delimited format used in spreadsheet applications
http://www.bom.gov.au/fwo/IDS60901/IDS60901.95677.axf

JavaScript Object Notation format (JSON) in row-major order
http://www.bom.gov.au/fwo/IDS60901/IDS60901.95677.json